KABE/ABE METAR and TAF weather

Enter ICAO airport designator
Station Type Date Time Source
KABE METAR 2022/01/26 18:51 UTC NOAA

KABE 261851Z VRB04KT 10SM BKN050 M04/M15 A3033 RMK AO2 UPB22E42 SLP277 P0000 T10441150


Station Type Date Time Source
KABE Decoded METAR 2022/01/26 18:51 UTC NOAA

LEHIGH VALLEY INTERNATIONAL AIRPORT, PA, United States (KABE) 40-39N 075-27W 114M
Jan 26, 2022 - 01:51 PM EST / 2022.01.26 1851 UTC
Wind: Variable at 5 MPH (4 KT):0
Visibility: 10 mile(s):0
Sky conditions: mostly cloudy
Precipitation last hour: A trace
Temperature: 24.1 F (-4.4 C)
Windchill: 17 F (-8 C):1
Dew Point: 5.0 F (-15.0 C)
Relative Humidity: 43%
Pressure (altimeter): 30.33 in. Hg (1027 hPa)
ob: KABE 261851Z VRB04KT 10SM BKN050 M04/M15 A3033 RMK AO2 UPB22E42 SLP277 P0000 T10441150
cycle: 19

Station Type Date Time Source
KABE TAF 2022/01/26 18:24 UTC NOAA

TAF KABE 261721Z 2618/2718 33080KT P6SM FEW050
FM262300 VRB03KT P6SM SKC

Example: see airport list